createdAt,value
2019-03-18T00:01:25.479Z,7.63
2019-03-18T00:03:58.151Z,7.97
2019-03-18T00:06:30.801Z,10.27
2019-03-18T00:09:04.731Z,4.33
2019-03-18T00:11:37.378Z,7.63
2019-03-18T00:14:10.063Z,6.17
2019-03-18T00:16:42.709Z,7.57
2019-03-18T00:19:15.369Z,8.37
2019-03-18T00:21:48.026Z,8.73
2019-03-18T00:24:20.691Z,4.53
2019-03-18T00:26:53.347Z,7.03
2019-03-18T00:29:26.067Z,5.83
2019-03-18T00:31:58.728Z,10.00
2019-03-18T00:34:31.371Z,4.70
2019-03-18T00:37:04.030Z,7.47
2019-03-18T00:39:36.686Z,6.47
2019-03-18T00:42:09.341Z,8.77
2019-03-18T00:44:41.991Z,7.40
2019-03-18T00:47:14.625Z,11.97
2019-03-18T00:49:47.634Z,8.17
2019-03-18T00:52:20.275Z,10.07
2019-03-18T00:54:52.918Z,4.23
2019-03-18T00:57:25.555Z,9.27
2019-03-18T00:59:58.199Z,8.37
2019-03-18T01:02:30.847Z,10.10
2019-03-18T01:05:04.182Z,9.00
2019-03-18T01:07:36.838Z,8.10
2019-03-18T01:10:10.534Z,8.20
2019-03-18T01:12:43.170Z,7.37
2019-03-18T01:15:27.371Z,8.23
2019-03-18T01:17:50.567Z,9.03
2019-03-18T01:20:23.216Z,7.57
2019-03-18T01:22:55.856Z,14.57
2019-03-18T01:25:28.519Z,8.43
2019-03-18T01:28:01.165Z,9.53
2019-03-18T01:30:33.818Z,9.03
2019-03-18T01:33:06.467Z,8.03
2019-03-18T01:35:40.085Z,8.27
2019-03-18T01:38:12.909Z,10.73
2019-03-18T01:40:45.552Z,8.50
2019-03-18T01:43:18.224Z,9.57
2019-03-18T01:45:50.935Z,12.03
2019-03-18T01:48:23.558Z,8.63
2019-03-18T01:50:56.199Z,13.90
2019-03-18T01:53:28.869Z,8.17
2019-03-18T01:56:01.514Z,8.87
2019-03-18T01:58:34.139Z,10.80
2019-03-18T02:01:06.787Z,8.40
2019-03-18T02:03:39.419Z,11.97
2019-03-18T02:06:12.078Z,8.03
2019-03-18T02:08:44.710Z,9.63
2019-03-18T02:11:17.346Z,6.97
2019-03-18T02:13:49.989Z,12.10
2019-03-18T02:16:22.635Z,9.83
2019-03-18T02:18:55.263Z,6.63
2019-03-18T02:21:27.948Z,5.83
2019-03-18T02:24:00.579Z,6.67
2019-03-18T02:26:33.237Z,7.40
2019-03-18T02:31:31.862Z,10.33
2019-03-18T02:34:04.507Z,6.10
2019-03-18T02:36:37.140Z,8.53
2019-03-18T02:39:09.792Z,8.47
2019-03-18T02:41:42.433Z,10.03
2019-03-18T02:44:15.099Z,5.97
2019-03-18T02:46:47.745Z,6.33
2019-03-18T02:49:20.598Z,7.97
2019-03-18T02:51:53.442Z,6.03
2019-03-18T02:54:26.185Z,10.07
2019-03-18T02:56:58.834Z,4.40
2019-03-18T02:59:31.484Z,6.30
2019-03-18T03:02:04.108Z,5.30
2019-03-18T03:04:36.782Z,6.37
2019-03-18T03:07:09.508Z,6.17
2019-03-18T03:09:42.156Z,6.77
2019-03-18T03:12:14.788Z,8.07
2019-03-18T03:14:47.423Z,5.73
2019-03-18T03:17:21.889Z,7.60
2019-03-18T03:19:54.461Z,9.10
2019-03-18T03:22:27.092Z,5.70
2019-03-18T03:24:59.743Z,9.93
2019-03-18T03:27:32.377Z,7.33
2019-03-18T03:30:05.168Z,7.80
2019-03-18T03:32:37.830Z,6.50
2019-03-18T03:35:10.655Z,9.33
2019-03-18T03:37:43.391Z,10.97
2019-03-18T03:40:16.024Z,6.20
2019-03-18T03:42:48.666Z,8.87
2019-03-18T03:45:21.302Z,6.33
2019-03-18T03:47:53.943Z,7.50
2019-03-18T03:50:26.609Z,6.90
2019-03-18T03:52:59.328Z,6.60
2019-03-18T03:55:32.000Z,5.83
2019-03-18T03:58:04.639Z,6.03
2019-03-18T04:00:37.272Z,7.40
2019-03-18T04:03:09.991Z,7.43
2019-03-18T04:05:42.628Z,6.40
2019-03-18T04:08:15.264Z,5.93
2019-03-18T04:10:47.919Z,6.00
2019-03-18T04:13:20.602Z,11.37
2019-03-18T04:15:53.249Z,8.47
2019-03-18T04:18:25.870Z,7.60
2019-03-18T04:20:58.528Z,5.50
2019-03-18T04:23:31.158Z,9.23
2019-03-18T04:26:03.792Z,9.53
2019-03-18T04:28:36.421Z,8.93
2019-03-18T04:31:09.066Z,10.50
2019-03-18T04:33:41.699Z,6.93
2019-03-18T04:36:14.358Z,9.20
2019-03-18T04:38:46.984Z,10.33
2019-03-18T04:41:19.617Z,11.13
2019-03-18T04:43:52.251Z,6.80
2019-03-18T04:46:24.919Z,9.50
2019-03-18T04:48:57.559Z,11.80
2019-03-18T04:51:30.204Z,6.63
2019-03-18T04:54:02.837Z,8.57
2019-03-18T04:56:35.474Z,7.20
2019-03-18T04:59:08.108Z,10.90
2019-03-18T05:01:40.760Z,11.23
2019-03-18T05:04:13.386Z,7.40
2019-03-18T05:06:46.035Z,8.30
2019-03-18T05:09:18.666Z,7.57
2019-03-18T05:11:51.302Z,11.27
2019-03-18T05:14:24.247Z,12.97
2019-03-18T05:16:56.907Z,10.53
2019-03-18T05:19:29.578Z,8.93
2019-03-18T05:22:02.274Z,11.57
2019-03-18T05:24:34.891Z,8.83
2019-03-18T05:27:07.717Z,7.57
2019-03-18T05:29:40.339Z,11.70
2019-03-18T05:32:12.998Z,14.87
2019-03-18T05:34:45.625Z,7.67
2019-03-18T05:37:18.293Z,9.30
2019-03-18T05:39:50.935Z,11.30
2019-03-18T05:42:23.601Z,8.83
2019-03-18T05:44:56.250Z,8.77
2019-03-18T05:47:38.609Z,10.43
2019-03-18T05:50:03.564Z,11.17
2019-03-18T05:52:36.223Z,10.40
2019-03-18T05:55:08.871Z,9.37
2019-03-18T05:57:41.510Z,11.17
2019-03-18T06:00:14.148Z,10.23
2019-03-18T06:02:47.317Z,11.80
2019-03-18T06:05:20.202Z,9.03
2019-03-18T06:07:52.848Z,10.30
2019-03-18T06:10:25.493Z,12.87
2019-03-18T06:12:58.142Z,12.33
2019-03-18T06:15:30.523Z,13.93
2019-03-18T06:18:03.167Z,9.53
2019-03-18T06:20:35.815Z,10.17
2019-03-18T06:23:08.467Z,11.73
2019-03-18T06:25:41.115Z,13.43
2019-03-18T06:28:13.783Z,13.63
2019-03-18T06:30:46.415Z,15.07
2019-03-18T06:33:19.063Z,10.97
2019-03-18T06:35:51.707Z,9.53
2019-03-18T06:38:24.355Z,10.20
2019-03-18T06:40:57.012Z,14.33
2019-03-18T06:43:29.678Z,10.03
2019-03-18T06:46:02.318Z,11.07
2019-03-18T06:48:35.003Z,8.50
2019-03-18T06:51:07.664Z,10.87
2019-03-18T06:53:40.390Z,11.17
2019-03-18T06:56:13.118Z,11.37
2019-03-18T06:58:46.065Z,10.60
2019-03-18T07:01:18.748Z,13.77
2019-03-18T07:03:51.438Z,18.63
2019-03-18T07:06:23.821Z,11.30
2019-03-18T07:08:56.478Z,10.17
2019-03-18T07:11:29.111Z,11.97
2019-03-18T07:14:01.764Z,7.70
2019-03-18T07:16:34.410Z,13.03
2019-03-18T07:19:07.149Z,10.40
2019-03-18T07:21:39.799Z,11.33
2019-03-18T07:24:12.481Z,11.87
2019-03-18T07:26:45.115Z,12.37
2019-03-18T07:29:17.763Z,16.37
2019-03-18T07:31:50.397Z,10.47
2019-03-18T07:34:23.127Z,15.77
2019-03-18T07:36:55.764Z,13.63
2019-03-18T07:39:28.408Z,8.50
2019-03-18T07:42:01.058Z,12.70
2019-03-18T07:44:33.690Z,9.97
2019-03-18T07:47:06.341Z,14.33
2019-03-18T07:49:39.044Z,8.43
2019-03-18T07:52:11.679Z,11.20
2019-03-18T07:54:44.340Z,11.00
2019-03-18T07:57:16.962Z,8.30
2019-03-18T07:59:49.624Z,10.03
2019-03-18T08:02:22.345Z,12.73
2019-03-18T08:04:55.011Z,14.43
2019-03-18T08:07:27.659Z,16.93
2019-03-18T08:10:00.414Z,10.70
2019-03-18T08:12:33.704Z,9.70
2019-03-18T08:15:06.461Z,13.20
2019-03-18T08:17:39.237Z,12.57
2019-03-18T08:20:11.917Z,14.90
2019-03-18T08:22:44.560Z,10.10
2019-03-18T08:25:17.203Z,9.50
2019-03-18T08:27:49.883Z,8.10
2019-03-18T08:30:22.532Z,11.40
2019-03-18T08:32:55.175Z,13.57
2019-03-18T08:35:27.819Z,11.30
2019-03-18T08:38:00.714Z,12.90
2019-03-18T08:40:33.442Z,10.47
2019-03-18T08:43:06.083Z,10.17
2019-03-18T08:45:38.760Z,12.00
2019-03-18T08:48:11.384Z,10.60
2019-03-18T08:50:44.026Z,11.77
2019-03-18T08:53:16.655Z,9.93
2019-03-18T08:55:49.375Z,11.93
2019-03-18T08:58:21.999Z,10.47
2019-03-18T09:00:54.638Z,13.53
2019-03-18T09:03:27.275Z,11.47
2019-03-18T09:05:59.919Z,9.67
2019-03-18T09:08:32.550Z,12.30
2019-03-18T09:11:05.207Z,11.53
2019-03-18T09:13:37.843Z,10.07
2019-03-18T09:16:10.507Z,10.90
2019-03-18T09:18:43.140Z,9.73
2019-03-18T09:21:15.850Z,6.50
2019-03-18T09:23:48.486Z,7.73
2019-03-18T09:26:21.189Z,10.37
2019-03-18T09:28:53.855Z,7.87
2019-03-18T09:31:26.585Z,6.83
2019-03-18T09:33:59.413Z,6.80
2019-03-18T09:36:32.068Z,7.90
2019-03-18T09:39:06.505Z,6.93
2019-03-18T09:41:39.155Z,7.23
2019-03-18T09:44:11.785Z,9.20
2019-03-18T09:46:44.435Z,7.47
2019-03-18T09:49:21.851Z,8.70
2019-03-18T09:51:51.435Z,7.83
2019-03-18T09:54:24.204Z,10.00
2019-03-18T09:56:56.939Z,8.57
2019-03-18T09:59:29.564Z,9.03
2019-03-18T10:02:02.283Z,8.87
2019-03-18T10:04:34.930Z,6.47
2019-03-18T10:07:07.629Z,9.90
2019-03-18T10:09:40.265Z,7.67
2019-03-18T10:12:12.930Z,7.43
2019-03-18T10:14:45.567Z,7.83
2019-03-18T10:17:18.240Z,5.70
2019-03-18T10:19:53.457Z,6.23
2019-03-18T10:22:25.274Z,6.83
2019-03-18T10:24:57.910Z,6.13
2019-03-18T10:27:30.562Z,7.67
2019-03-18T10:30:03.315Z,10.83
2019-03-18T10:32:36.045Z,5.60
2019-03-18T10:35:08.711Z,6.57
2019-03-18T10:37:41.373Z,8.43
2019-03-18T10:40:14.043Z,11.30
2019-03-18T10:42:46.733Z,8.57
2019-03-18T10:45:19.353Z,7.00
2019-03-18T10:47:54.627Z,12.97
2019-03-18T10:50:26.403Z,7.90
2019-03-18T10:52:59.114Z,9.33
2019-03-18T10:55:31.828Z,8.93
2019-03-18T10:58:04.545Z,8.40
2019-03-18T11:00:37.187Z,7.87
2019-03-18T11:03:09.667Z,8.63
2019-03-18T11:05:42.325Z,9.40
2019-03-18T11:08:14.996Z,7.10
2019-03-18T11:10:47.630Z,8.03
2019-03-18T11:13:20.391Z,13.37
2019-03-18T11:15:53.053Z,5.83
2019-03-18T11:18:25.702Z,5.40
2019-03-18T11:20:58.359Z,7.70
2019-03-18T11:23:31.044Z,11.73
2019-03-18T11:26:03.771Z,8.17
2019-03-18T11:28:36.411Z,8.50
2019-03-18T11:31:09.090Z,8.50
2019-03-18T11:33:41.799Z,7.23
2019-03-18T11:36:14.460Z,11.33
2019-03-18T11:38:47.099Z,15.00
2019-03-18T11:41:19.775Z,10.00
2019-03-18T11:43:52.415Z,8.83
2019-03-18T11:46:25.122Z,4.83
2019-03-18T11:48:57.788Z,4.47
2019-03-18T11:51:30.483Z,5.90
2019-03-18T11:54:03.184Z,5.30
2019-03-18T11:56:35.853Z,10.20
2019-03-18T11:59:08.497Z,6.73
2019-03-18T12:01:41.127Z,7.73
2019-03-18T12:04:13.803Z,7.20
2019-03-18T12:06:46.564Z,5.47
2019-03-18T12:09:19.228Z,4.33
2019-03-18T12:11:51.871Z,7.00
2019-03-18T12:14:24.535Z,6.80
2019-03-18T12:16:57.205Z,8.47
2019-03-18T12:19:29.868Z,8.07
2019-03-18T12:22:02.512Z,8.17
2019-03-18T12:24:35.153Z,9.93
2019-03-18T12:27:07.789Z,12.17
2019-03-18T12:29:40.457Z,15.03
2019-03-18T12:32:12.830Z,13.10
2019-03-18T12:34:46.772Z,10.10
2019-03-18T12:37:19.411Z,13.13
2019-03-18T12:39:52.069Z,12.33
2019-03-18T12:42:24.709Z,9.27
2019-03-18T12:44:57.363Z,8.70
2019-03-18T12:47:30.010Z,8.63
2019-03-18T12:50:03.313Z,12.10
2019-03-18T12:52:35.944Z,11.00
2019-03-18T12:55:08.609Z,7.93
2019-03-18T12:57:41.280Z,14.20
2019-03-18T13:00:18.618Z,10.13
2019-03-18T13:02:51.243Z,4.47
2019-03-18T13:05:25.181Z,13.53
2019-03-18T13:07:57.815Z,7.43
2019-03-18T13:10:30.486Z,11.70
2019-03-18T13:13:03.110Z,7.20
2019-03-18T13:15:35.783Z,8.03
2019-03-18T13:18:08.444Z,7.23
2019-03-18T13:20:41.091Z,7.50
2019-03-18T13:23:13.749Z,7.40
2019-03-18T13:25:46.427Z,7.97
2019-03-18T13:28:19.121Z,7.60
2019-03-18T13:30:51.819Z,8.70
2019-03-18T13:33:24.467Z,13.03
2019-03-18T13:35:57.120Z,5.93
2019-03-18T13:38:29.738Z,7.23
2019-03-18T13:41:02.407Z,8.80
2019-03-18T13:43:35.159Z,7.60
2019-03-18T13:46:08.035Z,7.70
2019-03-18T13:48:40.748Z,10.30
2019-03-18T13:51:20.960Z,13.77
2019-03-18T13:53:49.614Z,6.03
2019-03-18T13:56:22.672Z,8.30
2019-03-18T13:58:55.327Z,8.47
2019-03-18T14:01:28.035Z,5.50
2019-03-18T14:04:00.679Z,10.30
2019-03-18T14:06:33.339Z,7.77
2019-03-18T14:09:07.154Z,5.67
2019-03-18T14:11:39.794Z,8.97
2019-03-18T14:14:12.431Z,8.47
2019-03-18T14:16:45.110Z,5.30
2019-03-18T14:19:17.750Z,7.07
2019-03-18T14:21:50.431Z,8.00
2019-03-18T14:24:23.468Z,6.70
2019-03-18T14:26:56.115Z,8.43
2019-03-18T14:29:28.738Z,5.67
2019-03-18T14:32:01.409Z,6.73
2019-03-18T14:34:34.039Z,7.03
2019-03-18T14:37:06.699Z,6.87
2019-03-18T14:39:39.328Z,8.83
2019-03-18T14:42:11.972Z,7.97
2019-03-18T14:44:44.607Z,11.80
2019-03-18T14:47:17.259Z,9.23
2019-03-18T14:49:49.887Z,8.37
2019-03-18T14:52:22.632Z,6.27
2019-03-18T14:54:55.266Z,9.07
2019-03-18T14:57:27.931Z,6.10
2019-03-18T15:00:00.645Z,11.10
2019-03-18T15:02:33.291Z,9.87
2019-03-18T15:05:07.534Z,10.17
2019-03-18T15:07:40.215Z,16.50
2019-03-18T15:10:14.203Z,9.90
2019-03-18T15:12:46.838Z,7.40
2019-03-18T15:15:19.519Z,10.47
2019-03-18T15:17:52.209Z,10.27
2019-03-18T15:20:24.874Z,9.00
2019-03-18T15:22:57.531Z,7.03
2019-03-18T15:25:30.181Z,7.63
2019-03-18T15:28:02.835Z,7.60
2019-03-18T15:30:35.467Z,7.97
2019-03-18T15:33:08.135Z,8.93
2019-03-18T15:35:40.812Z,8.47
2019-03-18T15:38:13.558Z,10.90
2019-03-18T15:40:46.181Z,12.83
2019-03-18T15:43:18.840Z,8.23
2019-03-18T15:45:51.490Z,7.67
2019-03-18T15:48:24.127Z,11.40
2019-03-18T15:50:56.767Z,9.47
2019-03-18T15:53:29.431Z,10.40
2019-03-18T15:56:02.391Z,12.27
2019-03-18T15:58:35.034Z,14.20
2019-03-18T16:01:08.239Z,11.43
2019-03-18T16:03:41.181Z,6.47
2019-03-18T16:06:13.815Z,13.93
2019-03-18T16:08:46.479Z,10.87
2019-03-18T16:11:20.784Z,9.00
2019-03-18T16:13:53.419Z,10.57
2019-03-18T16:16:26.060Z,7.07
2019-03-18T16:18:58.727Z,5.57
2019-03-18T16:21:31.411Z,6.10
2019-03-18T16:24:04.068Z,8.23
2019-03-18T16:26:36.703Z,7.57
2019-03-18T16:29:09.349Z,6.07
2019-03-18T16:31:41.975Z,7.87
2019-03-18T16:34:14.801Z,7.77
2019-03-18T16:36:47.419Z,10.27
2019-03-18T16:39:20.080Z,7.83
2019-03-18T16:41:54.309Z,7.30
2019-03-18T16:44:27.232Z,8.67
2019-03-18T16:46:59.876Z,8.23
2019-03-18T16:49:32.515Z,12.17
2019-03-18T16:52:05.154Z,7.17
2019-03-18T16:54:37.804Z,9.67
2019-03-18T16:57:10.447Z,7.33
2019-03-18T16:59:43.456Z,10.33
2019-03-18T17:02:16.103Z,15.17
2019-03-18T17:04:48.832Z,13.93
2019-03-18T17:07:21.581Z,7.53
2019-03-18T17:09:54.350Z,10.80
2019-03-18T17:12:27.127Z,8.27
2019-03-18T17:14:59.900Z,7.97
2019-03-18T17:17:32.527Z,9.07
2019-03-18T17:20:06.459Z,12.47
2019-03-18T17:22:48.652Z,13.00
2019-03-18T17:25:14.995Z,14.93
2019-03-18T17:27:47.620Z,11.43
2019-03-18T17:30:20.280Z,11.03
2019-03-18T17:32:52.902Z,7.57
2019-03-18T17:35:25.595Z,17.57
2019-03-18T17:37:58.457Z,9.70
2019-03-18T17:40:31.090Z,6.77
2019-03-18T17:43:03.823Z,12.73
2019-03-18T17:45:36.503Z,9.97
2019-03-18T17:48:09.149Z,9.53
2019-03-18T17:50:41.833Z,6.90
2019-03-18T17:53:14.591Z,8.40
2019-03-18T17:55:47.283Z,7.00
2019-03-18T17:58:19.949Z,10.77
2019-03-18T18:00:52.694Z,16.70
2019-03-18T18:03:25.388Z,9.63
2019-03-18T18:05:58.108Z,11.97
2019-03-18T18:08:30.836Z,10.03
2019-03-18T18:11:03.508Z,12.13
2019-03-18T18:13:36.148Z,11.50
2019-03-18T18:16:08.861Z,11.83
2019-03-18T18:18:41.593Z,9.07
2019-03-18T18:21:14.275Z,10.83
2019-03-18T18:23:47.037Z,15.70
2019-03-18T18:26:19.737Z,12.90
2019-03-18T18:28:52.367Z,9.40
2019-03-18T18:31:25.146Z,11.07
2019-03-18T18:33:57.915Z,17.00
2019-03-18T18:36:30.809Z,15.37
2019-03-18T18:39:05.118Z,11.87
2019-03-18T18:41:37.763Z,12.57
2019-03-18T18:44:10.402Z,15.07
2019-03-18T18:46:43.063Z,9.93
2019-03-18T18:49:15.712Z,14.37
2019-03-18T18:51:48.363Z,14.20
2019-03-18T18:54:21.001Z,13.87
2019-03-18T18:56:53.754Z,12.53
2019-03-18T18:59:26.407Z,12.40
2019-03-18T19:01:59.074Z,12.47
2019-03-18T19:04:31.732Z,12.47
2019-03-18T19:07:04.387Z,11.53
2019-03-18T19:09:37.030Z,10.40
2019-03-18T19:12:09.704Z,15.37
2019-03-18T19:14:42.349Z,22.23
2019-03-18T19:17:15.003Z,14.37
2019-03-18T19:19:47.647Z,11.87
2019-03-18T19:22:20.332Z,12.67
2019-03-18T19:24:52.988Z,15.03
2019-03-18T19:27:25.635Z,15.07
2019-03-18T19:29:58.266Z,17.57
2019-03-18T19:32:30.911Z,14.83
2019-03-18T19:35:04.083Z,14.80
2019-03-18T19:37:36.730Z,13.00
2019-03-18T19:40:10.755Z,19.30
2019-03-18T19:42:43.382Z,16.07
2019-03-18T19:45:16.010Z,9.73
2019-03-18T19:47:48.646Z,10.97
2019-03-18T19:50:21.280Z,18.80
2019-03-18T19:52:53.922Z,13.00
2019-03-18T19:55:26.551Z,11.80
2019-03-18T19:57:59.201Z,15.73
2019-03-18T20:00:31.832Z,16.90
2019-03-18T20:03:04.471Z,15.23
2019-03-18T20:05:37.189Z,11.43
2019-03-18T20:08:09.883Z,9.80
2019-03-18T20:10:42.542Z,15.17
2019-03-18T20:13:15.230Z,11.53
2019-03-18T20:15:47.856Z,15.40
2019-03-18T20:18:20.499Z,13.80
2019-03-18T20:20:53.131Z,16.27
2019-03-18T20:23:25.792Z,18.50
2019-03-18T20:25:58.420Z,15.30
2019-03-18T20:28:31.091Z,12.87
2019-03-18T20:31:03.741Z,14.70
2019-03-18T20:33:36.395Z,16.97
2019-03-18T20:36:09.028Z,16.80
2019-03-18T20:38:41.690Z,12.20
2019-03-18T20:41:14.307Z,16.77
2019-03-18T20:43:46.967Z,19.37
2019-03-18T20:46:19.603Z,17.10
2019-03-18T20:48:52.266Z,19.77
2019-03-18T20:51:24.899Z,11.13
2019-03-18T20:53:57.555Z,14.93
2019-03-18T20:56:30.192Z,22.07
2019-03-18T20:59:02.852Z,15.80
2019-03-18T21:01:35.499Z,17.10
2019-03-18T21:04:08.188Z,15.13
2019-03-18T21:06:40.797Z,15.93
2019-03-18T21:09:13.451Z,17.83
2019-03-18T21:11:46.216Z,19.60
2019-03-18T21:14:18.883Z,14.10
2019-03-18T21:16:51.527Z,15.57
2019-03-18T21:19:24.199Z,19.03
2019-03-18T21:21:56.846Z,17.57
2019-03-18T21:24:29.479Z,11.40
2019-03-18T21:27:02.128Z,12.67
2019-03-18T21:29:34.767Z,14.30
2019-03-18T21:32:07.419Z,17.37
2019-03-18T21:34:40.093Z,14.27
2019-03-18T21:37:12.749Z,19.90
2019-03-18T21:39:45.417Z,15.63
2019-03-18T21:42:18.065Z,11.13
2019-03-18T21:44:50.718Z,14.87
2019-03-18T21:47:23.356Z,15.27
2019-03-18T21:49:56.045Z,16.67
2019-03-18T21:52:29.810Z,14.70
2019-03-18T21:55:02.491Z,18.20
2019-03-18T21:57:35.143Z,21.17
2019-03-18T22:00:08.748Z,12.80
2019-03-18T22:02:41.388Z,16.93
2019-03-18T22:05:14.080Z,10.97
2019-03-18T22:07:46.695Z,18.77
2019-03-18T22:10:19.388Z,19.80
2019-03-18T22:12:52.003Z,17.93
2019-03-18T22:15:24.698Z,15.10
2019-03-18T22:17:57.343Z,15.20
2019-03-18T22:20:30.026Z,13.53
2019-03-18T22:23:02.675Z,13.40
2019-03-18T22:25:35.309Z,16.77
2019-03-18T22:28:07.958Z,13.93
2019-03-18T22:30:40.691Z,14.53
2019-03-18T22:33:13.319Z,11.97
2019-03-18T22:35:45.975Z,17.07
2019-03-18T22:38:18.616Z,16.67
2019-03-18T22:40:51.283Z,16.77
2019-03-18T22:43:23.919Z,9.50
2019-03-18T22:45:56.565Z,15.83
2019-03-18T22:48:29.188Z,12.47
2019-03-18T22:51:01.844Z,17.30
2019-03-18T22:53:34.469Z,13.27
2019-03-18T22:56:07.124Z,13.60
2019-03-18T22:58:39.760Z,13.90
2019-03-18T23:01:12.770Z,14.87
2019-03-18T23:03:45.403Z,17.07
2019-03-18T23:06:18.039Z,12.77
2019-03-18T23:08:50.678Z,16.07
2019-03-18T23:11:23.316Z,12.60
2019-03-18T23:13:55.962Z,14.63
2019-03-18T23:16:28.595Z,10.63
2019-03-18T23:19:01.227Z,12.37
2019-03-18T23:21:33.867Z,11.43
2019-03-18T23:24:06.532Z,14.07
2019-03-18T23:26:39.173Z,15.30
2019-03-18T23:29:13.108Z,14.73
2019-03-18T23:31:45.767Z,14.90
2019-03-18T23:34:19.353Z,13.70
2019-03-18T23:36:52.112Z,16.43
2019-03-18T23:39:24.743Z,16.00
2019-03-18T23:41:57.387Z,11.17
2019-03-18T23:44:30.019Z,16.53
2019-03-18T23:47:02.662Z,13.80
2019-03-18T23:49:35.299Z,12.03
2019-03-18T23:52:07.969Z,16.67
2019-03-18T23:54:40.620Z,14.50
2019-03-18T23:57:13.749Z,12.00
2019-03-18T23:59:46.372Z,10.57
